Time;durP1;ratioP1;P1;durP2;ratioP2;P2;SDS_P1;SDS_P2;PMS_P1;PMS_P2;Temp;Humidity;BMP_temperature;BMP_pressure;BME280_temperature;BME280_humidity;BME280_pressure;Samples;Min_cycle;Max_cycle;Signal;HPM_P1;HPM_P2
2022/01/09 00:01:01;;;;;;;13.45;8.38;;;0.10;1.00;;;;;;5044554;28;20228;-79
2022/01/09 00:03:28;;;;;;;11.15;8.38;;;0.10;1.00;;;;;;5042056;28;20226;-80
2022/01/09 00:05:55;;;;;;;10.25;7.20;;;0.00;1.00;;;;;;5038396;28;20226;-79
2022/01/09 00:08:22;;;;;;;11.68;7.68;;;0.00;1.00;;;;;;5034795;28;20234;-79
2022/01/09 00:10:51;;;;;;;9.68;7.80;;;0.00;1.00;;;;;;5038909;28;20784;-80
2022/01/09 00:13:17;;;;;;;9.80;7.43;;;0.00;1.00;;;;;;5042539;28;20223;-80
2022/01/09 00:15:44;;;;;;;8.55;6.53;;;-0.10;1.00;;;;;;5041834;28;20252;-80
2022/01/09 00:18:11;;;;;;;9.65;6.72;;;-0.10;1.00;;;;;;5037292;28;20238;-78
2022/01/09 00:20:38;;;;;;;9.43;6.80;;;-0.10;1.00;;;;;;5065182;28;20206;-80
2022/01/09 00:23:04;;;;;;;8.20;7.03;;;-0.10;1.00;;;;;;5055547;28;20270;-80
2022/01/09 00:25:33;;;;;;;11.27;7.00;;;-0.10;1.00;;;;;;5051824;28;20226;-80
2022/01/09 00:28:00;;;;;;;9.85;7.30;;;-0.10;1.00;;;;;;5057494;28;20281;-80
2022/01/09 00:30:26;;;;;;;7.55;6.78;;;-0.10;1.00;;;;;;5038689;28;20301;-80
2022/01/09 00:32:53;;;;;;;11.15;6.72;;;-0.20;1.00;;;;;;5057896;28;20210;-80
2022/01/09 00:35:20;;;;;;;7.88;6.75;;;-0.20;1.00;;;;;;5049503;28;20253;-80
2022/01/09 00:37:47;;;;;;;8.60;6.40;;;-0.20;1.00;;;;;;5050205;28;20280;-79
2022/01/09 00:40:15;;;;;;;6.90;5.70;;;-0.20;1.00;;;;;;5044459;28;20221;-79
2022/01/09 00:42:43;;;;;;;7.85;7.03;;;-0.20;1.00;;;;;;5042685;28;20228;-78
2022/01/09 00:45:13;;;;;;;8.55;7.50;;;-0.20;1.00;;;;;;5040700;28;21364;-79
2022/01/09 00:47:40;;;;;;;7.65;6.55;;;-0.20;1.00;;;;;;5024117;28;20298;-80
2022/01/09 00:50:08;;;;;;;8.45;7.22;;;-0.20;1.00;;;;;;5037568;28;20249;-80
2022/01/09 00:52:35;;;;;;;10.50;7.28;;;-0.20;1.00;;;;;;5032878;28;20227;-80
2022/01/09 00:55:02;;;;;;;9.35;7.20;;;-0.20;1.00;;;;;;5031328;28;20226;-79
2022/01/09 00:57:29;;;;;;;10.00;7.63;;;-0.20;1.00;;;;;;5034369;28;20250;-78
2022/01/09 00:59:57;;;;;;;8.60;6.75;;;-0.20;1.00;;;;;;5031337;28;20286;-78
2022/01/09 01:02:24;;;;;;;8.50;7.30;;;-0.30;1.00;;;;;;5031179;28;20274;-80
2022/01/09 01:04:51;;;;;;;10.30;6.88;;;-0.20;1.00;;;;;;5033368;28;20281;-80
2022/01/09 01:07:19;;;;;;;8.70;6.63;;;-0.30;1.00;;;;;;5026403;28;20283;-80
2022/01/09 01:09:46;;;;;;;8.27;6.00;;;-0.30;1.00;;;;;;5033128;28;20601;-79
2022/01/09 01:12:13;;;;;;;9.73;7.05;;;-0.30;1.00;;;;;;5036699;28;20229;-80
2022/01/09 01:14:40;;;;;;;55.33;32.70;;;-0.30;1.00;;;;;;5027010;28;21041;-78
2022/01/09 01:17:09;;;;;;;9.15;6.88;;;-0.30;1.00;;;;;;5030732;28;20260;-78
2022/01/09 01:19:36;;;;;;;8.32;6.05;;;-0.20;1.00;;;;;;5031738;28;20230;-79
2022/01/09 01:22:03;;;;;;;9.20;7.60;;;-0.20;1.00;;;;;;5033024;28;20321;-79
2022/01/09 01:24:30;;;;;;;8.77;6.80;;;-0.20;1.00;;;;;;5031443;28;20243;-80
2022/01/09 01:26:57;;;;;;;9.95;7.10;;;-0.20;1.00;;;;;;5026534;28;20278;-80
2022/01/09 01:29:24;;;;;;;7.43;5.90;;;-0.20;1.00;;;;;;5024911;28;20297;-80
2022/01/09 01:31:51;;;;;;;9.85;7.13;;;-0.20;1.00;;;;;;5018532;28;20238;-79
2022/01/09 01:34:19;;;;;;;8.65;7.22;;;-0.20;1.00;;;;;;5018963;28;20219;-79
2022/01/09 01:36:45;;;;;;;9.05;6.38;;;-0.10;1.00;;;;;;5013515;28;20233;-79
2022/01/09 01:39:12;;;;;;;9.63;7.28;;;-0.10;1.00;;;;;;5020733;28;20281;-79
2022/01/09 01:41:39;;;;;;;10.70;7.07;;;-0.10;1.00;;;;;;5022988;28;20237;-79
2022/01/09 01:44:10;;;;;;;16.05;7.85;;;-0.10;1.00;;;;;;5023974;28;20308;-81
2022/01/09 01:46:38;;;;;;;9.93;6.32;;;-0.10;1.00;;;;;;5022246;28;20263;-79
2022/01/09 01:49:06;;;;;;;9.48;6.60;;;-0.10;1.00;;;;;;5028767;28;20222;-80
2022/01/09 01:51:35;;;;;;;9.43;7.03;;;-0.10;1.00;;;;;;5023520;28;20324;-80
2022/01/09 01:54:02;;;;;;;9.95;6.93;;;0.00;1.00;;;;;;5018060;28;20228;-79
2022/01/09 01:56:29;;;;;;;9.00;6.90;;;-0.10;1.00;;;;;;5019573;28;20252;-79
2022/01/09 01:58:57;;;;;;;9.65;7.03;;;-0.10;1.00;;;;;;5024277;28;20250;-80
2022/01/09 02:01:24;;;;;;;9.93;6.75;;;-0.10;1.00;;;;;;5005138;28;20225;-79
2022/01/09 02:03:53;;;;;;;8.82;7.13;;;-0.10;1.00;;;;;;5031359;28;20821;-80
2022/01/09 02:06:20;;;;;;;9.77;7.78;;;0.00;1.00;;;;;;5031701;28;20276;-80
2022/01/09 02:08:48;;;;;;;8.95;6.47;;;0.00;1.00;;;;;;5027509;28;20227;-80
2022/01/09 02:11:15;;;;;;;8.75;6.88;;;-0.10;1.00;;;;;;5032788;28;20232;-80
2022/01/09 02:13:45;;;;;;;10.18;7.75;;;0.00;1.00;;;;;;5024864;28;20240;-80
2022/01/09 02:16:16;;;;;;;10.27;7.03;;;0.00;1.00;;;;;;5019992;28;20226;-79
2022/01/09 02:18:44;;;;;;;15.52;10.18;;;-0.10;1.00;;;;;;5016212;28;20242;-80
2022/01/09 02:21:12;;;;;;;8.18;6.28;;;-0.10;1.00;;;;;;5021245;28;20229;-81
2022/01/09 02:23:41;;;;;;;9.00;7.20;;;-0.10;1.00;;;;;;5019466;28;20253;-81
2022/01/09 02:26:09;;;;;;;9.05;7.32;;;-0.10;1.00;;;;;;5019785;28;20326;-81
2022/01/09 02:28:35;;;;;;;8.65;7.15;;;-0.10;1.00;;;;;;5015539;28;21382;-79
2022/01/09 02:31:02;;;;;;;10.23;7.93;;;-0.10;1.00;;;;;;4995734;28;20757;-80
2022/01/09 02:33:28;;;;;;;15.23;8.23;;;-0.10;1.00;;;;;;5014513;28;20228;-79
2022/01/09 02:35:56;;;;;;;9.55;7.45;;;-0.10;1.00;;;;;;5014544;28;21310;-80
2022/01/09 02:38:24;;;;;;;8.48;7.55;;;-0.10;1.00;;;;;;5023028;28;20972;-80
2022/01/09 02:40:54;;;;;;;10.82;7.80;;;-0.10;1.00;;;;;;5020893;28;21434;-80
2022/01/09 02:43:22;;;;;;;10.35;7.00;;;-0.10;1.00;;;;;;5019360;28;20226;-80
2022/01/09 02:45:56;;;;;;;9.88;7.47;;;-0.10;1.00;;;;;;5016605;28;20318;-79
2022/01/09 02:48:23;;;;;;;9.52;7.88;;;-0.10;1.00;;;;;;5019818;28;20233;-79
2022/01/09 02:51:00;;;;;;;8.77;7.18;;;-0.20;1.00;;;;;;5019829;28;20226;-79
2022/01/09 02:53:33;;;;;;;10.73;8.05;;;-0.20;1.00;;;;;;5018457;28;20222;-80
2022/01/09 02:56:00;;;;;;;10.95;8.02;;;-0.20;1.00;;;;;;5023835;28;20218;-80
2022/01/09 02:58:27;;;;;;;9.93;7.30;;;-0.20;1.00;;;;;;5020681;28;20233;-80
2022/01/09 03:00:54;;;;;;;10.30;7.47;;;-0.20;1.00;;;;;;5020832;28;20293;-80
2022/01/09 03:03:20;;;;;;;11.52;7.50;;;-0.20;1.00;;;;;;5015761;28;20222;-79
2022/01/09 03:05:47;;;;;;;9.30;8.27;;;-0.20;1.00;;;;;;5012625;28;20923;-80
2022/01/09 03:08:14;;;;;;;9.20;7.25;;;-0.20;1.00;;;;;;5018460;28;20237;-79
2022/01/09 03:10:42;;;;;;;9.25;7.80;;;-0.20;1.00;;;;;;4996980;28;21497;-80
2022/01/09 03:13:09;;;;;;;9.75;7.63;;;-0.20;1.00;;;;;;5021311;28;20226;-80
2022/01/09 03:15:36;;;;;;;8.70;7.03;;;-0.20;1.00;;;;;;5021767;28;20234;-80
2022/01/09 03:18:03;;;;;;;14.85;8.38;;;-0.20;1.00;;;;;;5016555;28;20226;-80
2022/01/09 03:20:30;;;;;;;9.80;7.40;;;-0.20;1.00;;;;;;5002965;28;20266;-81
2022/01/09 03:22:57;;;;;;;9.73;7.30;;;-0.10;1.00;;;;;;5011850;28;20300;-80
2022/01/09 03:25:25;;;;;;;10.93;7.20;;;-0.10;1.00;;;;;;5017932;28;20713;-80
2022/01/09 03:27:54;;;;;;;9.25;7.00;;;-0.10;1.00;;;;;;5034104;28;20332;-79
2022/01/09 03:30:22;;;;;;;9.63;7.53;;;-0.10;1.00;;;;;;5033209;28;20316;-78
2022/01/09 03:32:51;;;;;;;8.25;6.72;;;-0.10;1.00;;;;;;5028440;28;20240;-79
2022/01/09 03:35:21;;;;;;;12.57;8.10;;;-0.10;1.00;;;;;;5025364;28;20214;-79
2022/01/09 03:37:49;;;;;;;10.40;7.30;;;-0.10;1.00;;;;;;5022895;28;20242;-79
2022/01/09 03:40:19;;;;;;;9.20;6.80;;;-0.10;1.00;;;;;;5021419;28;20311;-80
2022/01/09 03:42:47;;;;;;;9.70;7.50;;;-0.20;1.00;;;;;;5016104;28;21014;-78
2022/01/09 03:45:16;;;;;;;8.65;6.75;;;-0.20;1.00;;;;;;5024914;28;20234;-79
2022/01/09 03:47:44;;;;;;;9.57;7.57;;;-0.20;1.00;;;;;;5024269;28;20234;-78
2022/01/09 03:50:12;;;;;;;9.65;7.35;;;-0.10;1.00;;;;;;5022834;28;20240;-80
2022/01/09 03:52:41;;;;;;;10.55;7.78;;;-0.10;1.00;;;;;;5021140;28;20230;-80
2022/01/09 03:55:10;;;;;;;9.50;7.55;;;-0.10;1.00;;;;;;5008771;28;20230;-80
2022/01/09 03:57:38;;;;;;;10.10;7.00;;;-0.10;1.00;;;;;;5031509;28;20226;-79
2022/01/09 04:00:06;;;;;;;10.52;7.60;;;-0.10;1.00;;;;;;5026953;28;21041;-79
2022/01/09 04:02:35;;;;;;;8.13;7.05;;;-0.20;1.00;;;;;;5028218;28;20227;-79
2022/01/09 04:05:02;;;;;;;11.10;6.65;;;-0.20;1.00;;;;;;5025768;28;20229;-79
2022/01/09 04:07:29;;;;;;;12.27;7.28;;;-0.10;1.00;;;;;;5022441;28;20217;-79
2022/01/09 04:09:56;;;;;;;7.00;6.30;;;-0.10;1.00;;;;;;5019305;28;20229;-79
2022/01/09 04:12:34;;;;;;;11.00;7.15;;;-0.20;1.00;;;;;;5019885;28;20276;-79
2022/01/09 04:15:04;;;;;;;9.93;6.85;;;-0.10;1.00;;;;;;5024044;28;20395;-80
2022/01/09 04:17:40;;;;;;;9.10;7.25;;;-0.20;1.00;;;;;;5018815;28;20222;-79
2022/01/09 04:20:10;;;;;;;8.73;6.90;;;-0.10;1.00;;;;;;5006294;28;20593;-79
2022/01/09 04:22:39;;;;;;;8.93;6.10;;;-0.20;1.00;;;;;;5021436;28;20314;-79
2022/01/09 04:25:07;;;;;;;9.93;6.22;;;-0.20;1.00;;;;;;5027688;28;20225;-79
2022/01/09 04:27:35;;;;;;;8.05;6.00;;;-0.20;1.00;;;;;;5024542;28;21026;-80
2022/01/09 04:30:02;;;;;;;9.70;6.57;;;-0.10;1.00;;;;;;5024827;28;20224;-79
2022/01/09 04:32:29;;;;;;;7.40;5.90;;;-0.20;1.00;;;;;;5019219;28;20908;-79
2022/01/09 04:34:56;;;;;;;9.77;6.32;;;-0.10;1.00;;;;;;5024970;28;20226;-79
2022/01/09 04:37:25;;;;;;;7.70;5.45;;;-0.20;1.00;;;;;;5022809;28;20544;-80
2022/01/09 04:39:54;;;;;;;9.30;6.28;;;-0.10;1.00;;;;;;5024664;28;20219;-79
2022/01/09 04:42:24;;;;;;;10.00;6.70;;;-0.10;1.00;;;;;;5026337;28;20230;-80
2022/01/09 04:44:51;;;;;;;8.10;6.15;;;-0.10;1.00;;;;;;5027151;28;20218;-79
2022/01/09 04:47:18;;;;;;;8.35;6.03;;;-0.10;1.00;;;;;;5030307;28;20227;-78
2022/01/09 04:49:48;;;;;;;7.60;6.30;;;-0.10;1.00;;;;;;5011315;28;20269;-80
2022/01/09 04:52:18;;;;;;;8.15;6.07;;;-0.10;1.00;;;;;;5024771;28;20225;-80
2022/01/09 04:54:47;;;;;;;7.38;5.70;;;-0.10;1.00;;;;;;5021041;28;20219;-80
2022/01/09 04:57:14;;;;;;;6.82;4.93;;;-0.10;1.00;;;;;;5023517;28;20233;-80
2022/01/09 04:59:40;;;;;;;7.30;5.60;;;-0.10;1.00;;;;;;5023059;28;20280;-81
2022/01/09 05:02:07;;;;;;;7.10;5.70;;;-0.10;1.00;;;;;;5021300;28;21221;-79
2022/01/09 05:04:34;;;;;;;8.27;5.95;;;0.00;1.00;;;;;;5018266;28;20329;-79
2022/01/09 05:07:01;;;;;;;7.35;5.95;;;-0.10;1.00;;;;;;5022315;28;20218;-79
2022/01/09 05:09:28;;;;;;;11.38;6.32;;;0.00;1.00;;;;;;5029153;28;20234;-80
2022/01/09 05:11:56;;;;;;;8.20;5.60;;;0.00;1.00;;;;;;5046684;28;20308;-79
2022/01/09 05:14:23;;;;;;;8.10;5.72;;;0.00;1.00;;;;;;5046579;28;20233;-80
2022/01/09 05:16:50;;;;;;;9.35;5.80;;;0.00;1.00;;;;;;5042564;28;20389;-79
2022/01/09 05:19:20;;;;;;;6.28;4.75;;;0.00;1.00;;;;;;5024694;28;20235;-80
2022/01/09 05:21:48;;;;;;;6.25;5.45;;;0.00;1.00;;;;;;5041235;28;21420;-80
2022/01/09 05:24:15;;;;;;;11.88;6.82;;;0.00;1.00;;;;;;5021622;28;20226;-78
2022/01/09 05:26:42;;;;;;;7.05;5.20;;;0.00;1.00;;;;;;5023825;28;20309;-79
2022/01/09 05:29:14;;;;;;;10.63;6.15;;;0.00;1.00;;;;;;5018915;28;20999;-79
2022/01/09 05:31:40;;;;;;;8.32;5.07;;;0.00;1.00;;;;;;5026732;28;20229;-79
2022/01/09 05:34:08;;;;;;;7.13;5.45;;;0.00;1.00;;;;;;5024336;28;20223;-80
2022/01/09 05:36:35;;;;;;;9.10;6.25;;;0.00;1.00;;;;;;5027551;28;20239;-80
2022/01/09 05:39:03;;;;;;;7.90;6.35;;;0.00;1.00;;;;;;5006910;28;20323;-80
2022/01/09 05:41:30;;;;;;;9.60;5.80;;;0.00;1.00;;;;;;5023479;28;20220;-80
2022/01/09 05:43:56;;;;;;;10.20;5.90;;;0.10;1.00;;;;;;5016836;28;20334;-79
2022/01/09 05:46:26;;;;;;;7.55;6.85;;;0.10;1.00;;;;;;5021237;28;20250;-80
2022/01/09 05:48:52;;;;;;;8.50;5.95;;;0.10;1.00;;;;;;5023731;28;20317;-80
2022/01/09 05:51:20;;;;;;;7.30;4.93;;;0.10;1.00;;;;;;5021705;28;20218;-80
2022/01/09 05:53:46;;;;;;;10.32;6.32;;;0.10;1.00;;;;;;5014379;28;20239;-80
2022/01/09 05:56:13;;;;;;;7.18;5.85;;;0.10;1.00;;;;;;5025407;28;20222;-79
2022/01/09 05:58:40;;;;;;;6.82;5.38;;;0.10;1.00;;;;;;5024428;28;20874;-79
2022/01/09 06:01:07;;;;;;;8.43;5.78;;;0.10;1.00;;;;;;5021459;28;20232;-80
2022/01/09 06:03:36;;;;;;;7.43;5.45;;;0.10;1.00;;;;;;5024608;28;20242;-79
2022/01/09 06:06:03;;;;;;;8.75;6.10;;;0.10;1.00;;;;;;5023805;28;20995;-80
2022/01/09 06:08:30;;;;;;;9.40;6.10;;;0.10;1.00;;;;;;5027316;28;20919;-79
2022/01/09 06:10:57;;;;;;;8.68;5.13;;;0.10;1.00;;;;;;5025246;28;20226;-80
2022/01/09 06:13:25;;;;;;;7.65;5.75;;;0.10;1.00;;;;;;5020953;28;21076;-80
2022/01/09 06:15:52;;;;;;;10.00;5.38;;;0.20;1.00;;;;;;5000695;28;20312;-80
2022/01/09 06:18:19;;;;;;;6.95;5.30;;;0.20;1.00;;;;;;5024470;28;20309;-79
2022/01/09 06:20:48;;;;;;;9.45;5.32;;;0.20;1.00;;;;;;5018327;28;20223;-79
2022/01/09 06:23:19;;;;;;;7.63;6.00;;;0.30;1.00;;;;;;5016828;28;21024;-78
2022/01/09 06:25:46;;;;;;;10.27;6.13;;;0.30;1.00;;;;;;5016704;28;20233;-79
2022/01/09 06:28:15;;;;;;;8.93;6.22;;;0.40;1.00;;;;;;5022298;28;21116;-79
2022/01/09 06:30:43;;;;;;;9.93;5.88;;;0.40;1.00;;;;;;5019163;28;20706;-80
2022/01/09 06:33:11;;;;;;;9.25;5.78;;;0.40;1.00;;;;;;5012662;28;20230;-80
2022/01/09 06:35:39;;;;;;;8.07;5.43;;;0.50;1.00;;;;;;5049308;28;20274;-79
2022/01/09 06:38:08;;;;;;;7.40;5.68;;;0.50;1.00;;;;;;5038885;28;21125;-80
2022/01/09 06:40:35;;;;;;;8.05;5.72;;;0.50;1.00;;;;;;5022699;28;20214;-79
2022/01/09 06:43:02;;;;;;;7.07;5.97;;;0.50;1.00;;;;;;5022408;28;20277;-80
2022/01/09 06:45:29;;;;;;;7.72;5.47;;;0.50;1.00;;;;;;5026602;28;21155;-80
2022/01/09 06:47:57;;;;;;;8.73;5.80;;;0.60;1.00;;;;;;5017934;28;21081;-80
2022/01/09 06:50:25;;;;;;;7.57;6.25;;;0.60;1.00;;;;;;5017705;28;20227;-80
2022/01/09 06:52:52;;;;;;;9.43;5.80;;;0.60;1.00;;;;;;5020276;28;20313;-80
2022/01/09 06:55:20;;;;;;;6.95;5.78;;;0.60;1.00;;;;;;5022821;28;20228;-80
2022/01/09 06:57:48;;;;;;;7.47;5.28;;;0.60;1.00;;;;;;5016162;28;20248;-80
2022/01/09 07:00:17;;;;;;;8.70;6.13;;;0.60;1.00;;;;;;5019804;28;20215;-80
2022/01/09 07:02:44;;;;;;;10.70;6.20;;;0.60;1.00;;;;;;5014725;28;20226;-79
2022/01/09 07:05:11;;;;;;;7.22;6.25;;;0.60;1.00;;;;;;5019030;28;20226;-80
2022/01/09 07:07:38;;;;;;;8.75;5.75;;;0.60;1.00;;;;;;5023970;28;20994;-81
2022/01/09 07:10:05;;;;;;;8.88;5.93;;;0.70;1.00;;;;;;5012780;28;20313;-79
2022/01/09 07:12:34;;;;;;;9.25;6.25;;;0.70;1.00;;;;;;5020658;28;20237;-80
2022/01/09 07:15:01;;;;;;;9.85;6.13;;;0.70;1.00;;;;;;5018934;28;21205;-79
2022/01/09 07:17:28;;;;;;;12.70;7.20;;;0.70;1.00;;;;;;5018050;28;23443;-80
2022/01/09 07:19:54;;;;;;;7.47;5.93;;;0.70;1.00;;;;;;5010707;28;20852;-80
2022/01/09 07:22:21;;;;;;;7.55;6.30;;;0.70;1.00;;;;;;5013713;28;20226;-80
2022/01/09 07:24:47;;;;;;;8.00;5.32;;;0.80;1.00;;;;;;5017733;28;20222;-81
2022/01/09 07:27:14;;;;;;;9.60;7.25;;;0.80;1.00;;;;;;5021694;28;20218;-81
2022/01/09 07:29:42;;;;;;;9.35;7.10;;;0.80;1.00;;;;;;5014890;28;21003;-80
2022/01/09 07:32:09;;;;;;;10.32;6.50;;;0.90;1.00;;;;;;5019712;28;20222;-80
2022/01/09 07:34:36;;;;;;;9.73;6.00;;;0.90;1.00;;;;;;5018635;28;20248;-79
2022/01/09 07:37:03;;;;;;;7.78;6.57;;;0.90;1.00;;;;;;5018019;28;20721;-80
2022/01/09 07:39:30;;;;;;;8.40;6.30;;;0.90;1.00;;;;;;5015616;28;20218;-79
2022/01/09 07:41:58;;;;;;;9.55;7.43;;;0.90;1.00;;;;;;5020525;28;20214;-79
2022/01/09 07:44:25;;;;;;;7.97;6.35;;;0.90;1.00;;;;;;5021741;28;20313;-80
2022/01/09 07:46:53;;;;;;;8.55;6.60;;;0.90;1.00;;;;;;5003264;28;20234;-79
2022/01/09 07:49:22;;;;;;;9.55;7.35;;;0.90;1.00;;;;;;5024448;28;20216;-79
2022/01/09 07:51:48;;;;;;;9.20;7.38;;;1.00;1.00;;;;;;5021892;28;20228;-80
2022/01/09 07:54:15;;;;;;;10.57;6.88;;;1.00;1.00;;;;;;5006161;28;20249;-80
2022/01/09 07:56:42;;;;;;;12.30;8.55;;;1.00;1.00;;;;;;5024073;28;20455;-79
2022/01/09 07:59:09;;;;;;;8.23;6.28;;;1.10;1.00;;;;;;5027351;28;20432;-80
2022/01/09 08:01:35;;;;;;;8.25;7.13;;;1.20;1.00;;;;;;5026026;28;20514;-79
2022/01/09 08:04:03;;;;;;;12.93;7.15;;;1.20;1.00;;;;;;5021908;28;20334;-82
2022/01/09 08:06:30;;;;;;;8.23;6.53;;;1.30;1.00;;;;;;5025607;28;20269;-81
2022/01/09 08:08:57;;;;;;;10.10;6.50;;;1.40;1.00;;;;;;5020880;28;20232;-80
2022/01/09 08:11:23;;;;;;;9.68;6.93;;;1.40;1.00;;;;;;5022420;28;20351;-80
2022/01/09 08:13:51;;;;;;;11.90;7.47;;;1.40;1.00;;;;;;5023795;28;20222;-79
2022/01/09 08:16:18;;;;;;;10.80;6.30;;;1.40;1.00;;;;;;5024973;28;20253;-79
2022/01/09 08:18:44;;;;;;;10.73;6.78;;;1.30;1.00;;;;;;5015882;28;20311;-80
2022/01/09 08:21:18;;;;;;;11.52;9.88;;;1.30;1.00;;;;;;5000838;28;20636;-80
2022/01/09 08:23:45;;;;;;;8.25;6.72;;;1.30;1.00;;;;;;5002089;28;20226;-79
2022/01/09 08:26:12;;;;;;;9.05;6.63;;;1.30;1.00;;;;;;5021170;28;20218;-80
2022/01/09 08:28:41;;;;;;;9.00;6.82;;;1.30;1.00;;;;;;5003688;28;20245;-78
2022/01/09 08:31:08;;;;;;;8.65;6.38;;;1.40;1.00;;;;;;5018821;28;20234;-79
2022/01/09 08:33:35;;;;;;;10.48;6.75;;;1.40;1.00;;;;;;5020605;28;20320;-81
2022/01/09 08:36:02;;;;;;;8.32;6.25;;;1.50;1.00;;;;;;5034225;28;20214;-80
2022/01/09 08:38:30;;;;;;;10.20;7.25;;;1.50;1.00;;;;;;5025509;28;20233;-81
2022/01/09 08:40:57;;;;;;;9.02;6.00;;;1.60;1.00;;;;;;5023231;28;20225;-81
2022/01/09 08:43:24;;;;;;;9.43;6.65;;;1.60;1.00;;;;;;5020809;28;20293;-79
2022/01/09 08:45:50;;;;;;;8.82;6.78;;;1.60;1.00;;;;;;5022730;28;20661;-79
2022/01/09 08:48:17;;;;;;;8.55;6.47;;;1.70;1.00;;;;;;5025771;28;20218;-79
2022/01/09 08:50:44;;;;;;;10.90;6.65;;;1.70;1.00;;;;;;5028447;28;21124;-78
2022/01/09 08:53:11;;;;;;;6.07;5.47;;;1.80;1.00;;;;;;5022791;28;20367;-78
2022/01/09 08:55:39;;;;;;;9.93;5.70;;;1.80;1.00;;;;;;5029626;28;20959;-78
2022/01/09 08:58:05;;;;;;;9.13;5.85;;;1.70;1.00;;;;;;5027692;28;20718;-80
2022/01/09 09:00:32;;;;;;;9.48;5.85;;;1.80;1.00;;;;;;5028890;28;20634;-80
2022/01/09 09:02:59;;;;;;;9.07;6.13;;;1.80;1.00;;;;;;5027175;28;20964;-82
2022/01/09 09:05:26;;;;;;;10.77;6.20;;;1.80;1.00;;;;;;5025165;28;20243;-82
2022/01/09 09:07:52;;;;;;;11.48;6.13;;;1.90;1.00;;;;;;5027504;28;20233;-81
2022/01/09 09:10:19;;;;;;;7.68;5.47;;;1.90;1.00;;;;;;5043562;28;20226;-81
2022/01/09 09:12:47;;;;;;;7.68;5.40;;;1.90;1.00;;;;;;5043934;28;20281;-81
2022/01/09 09:15:14;;;;;;;7.85;5.88;;;2.00;1.00;;;;;;5011916;28;20226;-81
2022/01/09 09:17:41;;;;;;;6.57;4.85;;;2.00;1.00;;;;;;5023674;28;20293;-82
2022/01/09 09:20:09;;;;;;;7.22;5.43;;;2.00;1.00;;;;;;5026815;28;20313;-81
2022/01/09 09:22:37;;;;;;;7.03;4.88;;;2.00;1.00;;;;;;5023283;28;21154;-81
2022/01/09 09:25:04;;;;;;;7.38;5.30;;;2.10;1.00;;;;;;5027854;28;20245;-82
2022/01/09 09:27:32;;;;;;;5.40;4.55;;;2.10;1.00;;;;;;5020388;28;20309;-81
2022/01/09 09:30:03;;;;;;;7.93;5.70;;;2.20;1.00;;;;;;5014276;28;20239;-81
2022/01/09 09:32:30;;;;;;;7.40;5.47;;;2.20;1.00;;;;;;5005552;28;20234;-82
2022/01/09 09:34:57;;;;;;;7.50;5.20;;;2.20;1.00;;;;;;5024854;28;20297;-81
2022/01/09 09:37:28;;;;;;;8.10;6.25;;;2.20;1.00;;;;;;5019407;28;20352;-82
2022/01/09 09:39:55;;;;;;;8.05;5.30;;;2.20;1.00;;;;;;5006730;28;20801;-83
2022/01/09 09:42:22;;;;;;;5.35;4.78;;;2.30;1.00;;;;;;5017735;28;21053;-83
2022/01/09 09:44:49;;;;;;;8.70;4.85;;;2.30;1.00;;;;;;5006158;28;22165;-83
2022/01/09 09:47:21;;;;;;;9.35;5.15;;;2.40;1.00;;;;;;5023168;28;21173;-84
2022/01/09 09:49:48;;;;;;;6.75;5.00;;;2.30;1.00;;;;;;5013473;28;20222;-83
2022/01/09 09:52:18;;;;;;;6.65;5.25;;;2.40;1.00;;;;;;5027340;28;20230;-82
2022/01/09 09:54:46;;;;;;;6.80;5.03;;;2.40;1.00;;;;;;5018871;28;22698;-84
2022/01/09 09:57:13;;;;;;;6.85;5.47;;;2.40;1.00;;;;;;5029527;28;20228;-83
2022/01/09 09:59:40;;;;;;;4.85;4.35;;;2.50;1.00;;;;;;5021822;28;20424;-82
2022/01/09 10:02:11;;;;;;;7.95;5.35;;;2.50;1.00;;;;;;4986543;28;20322;-82
2022/01/09 10:04:57;;;;;;;8.13;5.53;;;2.50;1.00;;;;;;5022950;28;21355;-80
2022/01/09 10:07:24;;;;;;;7.93;5.93;;;2.60;1.00;;;;;;5027923;28;20698;-87
2022/01/09 10:09:54;;;;;;;7.40;5.45;;;2.60;1.00;;;;;;5024538;28;20763;-84
2022/01/09 10:12:24;;;;;;;7.43;5.18;;;2.60;1.00;;;;;;5018248;28;20281;-84
2022/01/09 10:14:54;;;;;;;8.70;4.50;;;2.70;1.00;;;;;;5005606;28;20327;-83
2022/01/09 10:17:21;;;;;;;7.03;5.25;;;2.80;1.00;;;;;;5035988;28;20982;-85
2022/01/09 10:19:53;;;;;;;9.32;4.53;;;2.80;1.00;;;;;;5050134;28;20268;-85
2022/01/09 10:22:32;;;;;;;6.38;5.43;;;2.90;1.00;;;;;;5049631;28;20553;-86
2022/01/09 10:25:20;;;;;;;8.38;6.68;;;2.90;1.00;;;;;;5033148;28;20273;-84
2022/01/09 10:27:48;;;;;;;10.30;7.40;;;3.10;1.00;;;;;;5043735;28;20221;-79
2022/01/09 10:30:15;;;;;;;5.78;4.13;;;3.10;1.00;;;;;;5035019;28;20280;-80
2022/01/09 10:32:42;;;;;;;6.28;4.35;;;3.20;1.00;;;;;;5030724;28;20257;-81
2022/01/09 10:35:14;;;;;;;5.68;4.80;;;3.20;1.00;;;;;;5022170;28;20262;-78
2022/01/09 10:37:42;;;;;;;6.93;4.53;;;3.30;1.00;;;;;;5022962;28;20316;-79
2022/01/09 10:40:12;;;;;;;5.85;4.97;;;3.40;1.00;;;;;;5021482;28;21114;-81
2022/01/09 10:42:39;;;;;;;5.55;4.47;;;3.50;1.00;;;;;;5023918;28;20312;-80
2022/01/09 10:45:20;;;;;;;5.68;4.30;;;3.80;1.00;;;;;;5023053;28;20222;-81
2022/01/09 10:47:48;;;;;;;6.80;5.57;;;3.90;1.00;;;;;;5018497;28;21214;-81
2022/01/09 10:50:26;;;;;;;7.10;4.70;;;4.10;1.00;;;;;;5015823;28;20278;-79
2022/01/09 10:53:11;;;;;;;9.73;5.03;;;4.10;1.00;;;;;;5018061;28;20298;-79
2022/01/09 10:55:40;;;;;;;6.65;5.32;;;4.20;1.00;;;;;;5019546;28;20234;-79
2022/01/09 10:58:20;;;;;;;6.35;5.10;;;4.30;1.00;;;;;;5019099;28;20517;-79
2022/01/09 11:00:47;;;;;;;5.88;4.80;;;4.30;1.00;;;;;;5018439;28;20245;-79
2022/01/09 11:03:14;;;;;;;6.97;4.22;;;4.30;1.00;;;;;;5020993;28;20218;-81
2022/01/09 11:05:44;;;;;;;6.60;4.68;;;4.30;1.00;;;;;;5022323;28;20214;-80
2022/01/09 11:08:11;;;;;;;5.40;4.63;;;4.30;1.00;;;;;;5016117;28;20222;-78
2022/01/09 11:10:39;;;;;;;7.65;5.00;;;4.30;1.00;;;;;;5023104;28;20246;-80
2022/01/09 11:13:06;;;;;;;6.05;5.15;;;4.40;1.00;;;;;;5022556;28;20989;-80
2022/01/09 11:15:41;;;;;;;5.55;4.68;;;4.50;1.00;;;;;;5020508;28;20230;-82
2022/01/09 11:18:09;;;;;;;6.10;4.43;;;4.50;1.00;;;;;;5027229;28;20649;-79
2022/01/09 11:20:36;;;;;;;6.38;4.95;;;4.60;1.00;;;;;;5016976;28;20942;-79
2022/01/09 11:23:05;;;;;;;5.47;4.18;;;4.60;1.00;;;;;;5021489;28;20222;-79
2022/01/09 11:25:38;;;;;;;6.30;4.90;;;4.70;1.00;;;;;;5018563;28;20230;-79
2022/01/09 11:28:13;;;;;;;5.22;4.65;;;4.80;1.00;;;;;;5024822;28;20257;-83
2022/01/09 11:31:02;;;;;;;4.82;4.30;;;4.90;1.00;;;;;;5023125;28;20321;-82
2022/01/09 11:34:08;;;;;;;4.97;4.43;;;4.90;1.00;;;;;;5021109;28;20646;-79
2022/01/09 11:36:42;;;;;;;5.13;4.63;;;5.00;1.00;;;;;;5027212;28;20218;-79
2022/01/09 11:39:17;;;;;;;6.80;4.47;;;4.90;1.00;;;;;;5001326;28;20257;-80
2022/01/09 11:42:04;;;;;;;4.05;3.65;;;4.80;1.00;;;;;;5012234;28;20747;-84
2022/01/09 11:44:33;;;;;;;7.22;4.95;;;4.60;1.00;;;;;;4999955;28;20238;-83
2022/01/09 11:47:02;;;;;;;6.78;4.30;;;4.50;1.00;;;;;;5019478;28;20218;-82
2022/01/09 11:49:31;;;;;;;5.68;4.20;;;4.50;1.00;;;;;;5012332;28;20260;-84
2022/01/09 11:52:00;;;;;;;6.07;4.60;;;4.50;1.00;;;;;;5024483;28;20234;-85
2022/01/09 11:54:48;;;;;;;7.07;5.07;;;4.50;1.00;;;;;;5037497;28;20237;-84
2022/01/09 11:57:20;;;;;;;6.65;4.20;;;4.40;1.00;;;;;;5017545;28;20245;-83
2022/01/09 11:59:51;;;;;;;5.60;4.35;;;4.50;1.00;;;;;;5004636;28;20226;-84
2022/01/09 12:02:33;;;;;;;6.38;4.47;;;4.60;1.00;;;;;;5021314;28;20813;-84
2022/01/09 12:05:02;;;;;;;5.82;4.30;;;4.50;1.00;;;;;;5020228;28;20230;-81
2022/01/09 12:08:06;;;;;;;6.35;5.00;;;4.60;1.00;;;;;;5026386;28;20771;-81
2022/01/09 12:10:40;;;;;;;4.90;3.88;;;4.60;1.00;;;;;;5029000;28;20222;-80
2022/01/09 12:13:38;;;;;;;7.70;5.72;;;4.70;1.00;;;;;;5025922;28;20222;-79
2022/01/09 12:16:08;;;;;;;6.30;4.00;;;4.80;1.00;;;;;;5025315;28;20230;-82
2022/01/09 12:18:44;;;;;;;7.90;4.60;;;4.80;1.00;;;;;;5005415;28;20242;-80
2022/01/09 12:35:13;;;;;;;5.30;4.30;;;4.80;1.00;;;;;;5149023;27;20904;-80
2022/01/09 12:37:45;;;;;;;6.45;4.55;;;5.30;1.00;;;;;;5158640;27;20242;-81
2022/01/09 12:40:14;;;;;;;5.18;4.20;;;5.30;1.00;;;;;;5124871;27;20226;-80
2022/01/09 12:42:46;;;;;;;7.53;5.28;;;5.20;1.00;;;;;;5137713;27;20320;-78
2022/01/09 12:45:13;;;;;;;6.55;4.72;;;5.20;1.00;;;;;;5135671;27;20233;-80
2022/01/09 12:47:45;;;;;;;6.43;5.25;;;5.20;1.00;;;;;;5128780;27;20239;-78
2022/01/09 12:50:13;;;;;;;7.53;4.75;;;5.20;1.00;;;;;;5131824;27;20224;-80
2022/01/09 12:52:41;;;;;;;6.78;4.78;;;5.10;1.00;;;;;;5127257;27;20743;-81
2022/01/09 12:55:11;;;;;;;5.40;4.55;;;5.10;1.00;;;;;;5141773;27;20219;-81
2022/01/09 12:57:51;;;;;;;7.00;4.60;;;5.00;1.00;;;;;;5152781;27;20222;-80
2022/01/09 13:00:25;;;;;;;5.43;4.82;;;4.90;1.00;;;;;;5155552;27;20302;-78
2022/01/09 13:02:53;;;;;;;7.18;5.00;;;5.00;1.00;;;;;;5148244;27;20287;-79
2022/01/09 13:05:23;;;;;;;6.07;5.10;;;5.00;1.00;;;;;;5146000;27;20227;-79
2022/01/09 13:07:56;;;;;;;6.40;4.82;;;5.10;1.00;;;;;;5123353;27;20819;-80
2022/01/09 13:10:29;;;;;;;7.45;5.25;;;5.10;1.00;;;;;;5127316;27;20222;-79
2022/01/09 13:13:00;;;;;;;5.75;4.50;;;5.10;1.00;;;;;;5131466;27;20231;-81
2022/01/09 13:15:34;;;;;;;8.15;5.05;;;5.10;1.00;;;;;;5132425;27;20259;-78
2022/01/09 13:18:00;;;;;;;5.90;4.78;;;5.10;1.00;;;;;;5129242;27;20901;-79
2022/01/09 13:20:28;;;;;;;8.85;4.85;;;5.10;1.00;;;;;;5135269;27;20211;-80
2022/01/09 13:23:06;;;;;;;5.40;4.25;;;5.00;1.00;;;;;;5137006;27;20914;-81
2022/01/09 13:25:44;;;;;;;8.20;5.25;;;5.00;1.00;;;;;;5134751;27;20298;-80